createdAt,value
2023-03-21T00:04:48.459Z,100531.22
2023-03-21T00:10:04.804Z,100528.47
2023-03-21T00:15:09.704Z,100524.50
2023-03-21T00:20:15.355Z,100513.59
2023-03-21T00:25:18.315Z,100508.91
2023-03-21T00:30:22.247Z,100516.09
2023-03-21T00:35:57.868Z,100514.88
2023-03-21T00:40:51.434Z,100501.50
2023-03-21T00:45:54.244Z,100499.75
2023-03-21T00:51:00.518Z,100494.63
2023-03-21T00:56:03.306Z,100492.06
2023-03-21T01:01:09.313Z,100489.97
2023-03-21T01:06:14.933Z,100483.06
2023-03-21T01:11:19.658Z,100484.47
2023-03-21T01:16:22.487Z,100473.47
2023-03-21T01:21:26.735Z,100476.38
2023-03-21T01:26:30.463Z,100483.72
2023-03-21T01:31:33.884Z,100478.63
2023-03-21T01:36:38.310Z,100472.97
2023-03-21T01:41:45.310Z,100470.78
2023-03-21T01:47:15.132Z,100462.97
2023-03-21T01:52:37.207Z,100465.25
2023-03-21T01:58:02.316Z,100450.50
2023-03-21T02:03:16.930Z,100450.19
2023-03-21T02:08:39.548Z,100450.06
2023-03-21T02:13:48.763Z,100435.94
2023-03-21T02:19:01.171Z,100434.78
2023-03-21T02:24:42.742Z,100428.16
2023-03-21T02:30:50.768Z,100426.97
2023-03-21T02:36:17.970Z,100415.56
2023-03-21T02:41:39.546Z,100417.13
2023-03-21T02:46:53.788Z,100420.78
2023-03-21T02:52:15.571Z,100409.63
2023-03-21T02:57:25.506Z,100409.38
2023-03-21T03:02:35.787Z,100403.72
2023-03-21T03:07:47.627Z,100406.91
2023-03-21T03:13:04.936Z,100410.69
2023-03-21T03:18:14.314Z,100414.25
2023-03-21T03:23:26.935Z,100401.75
2023-03-21T03:28:34.094Z,100402.94
2023-03-21T03:33:41.520Z,100401.31
2023-03-21T03:38:47.474Z,100390.09
2023-03-21T03:43:54.903Z,100394.94
2023-03-21T03:49:06.492Z,100401.06
2023-03-21T03:54:14.571Z,100391.69
2023-03-21T03:59:21.948Z,100391.28
2023-03-21T04:04:37.318Z,100389.16
2023-03-21T04:09:44.605Z,100387.66
2023-03-21T04:14:55.021Z,100378.56
2023-03-21T04:20:11.048Z,100379.09
2023-03-21T04:25:24.472Z,100376.97
2023-03-21T04:30:37.777Z,100382.41
2023-03-21T04:35:47.951Z,100376.00
2023-03-21T04:40:50.944Z,100369.59
2023-03-21T04:45:55.628Z,100371.28
2023-03-21T04:50:58.662Z,100360.38
2023-03-21T04:56:04.551Z,100351.81
2023-03-21T05:01:09.014Z,100351.59
2023-03-21T05:06:11.945Z,100356.63
2023-03-21T05:11:14.732Z,100348.09
2023-03-21T05:16:18.978Z,100363.25
2023-03-21T05:21:21.836Z,100354.81
2023-03-21T05:26:26.495Z,100348.25
2023-03-21T05:31:38.650Z,100352.53
2023-03-21T05:36:45.637Z,100345.56
2023-03-21T05:41:48.809Z,100339.59
2023-03-21T05:46:53.176Z,100340.53
2023-03-21T05:52:02.080Z,100345.56
2023-03-21T05:57:06.082Z,100343.91
2023-03-21T06:02:28.387Z,100340.50
2023-03-21T06:07:35.503Z,100344.59
2023-03-21T06:12:38.812Z,100352.78
2023-03-21T06:18:01.427Z,100348.81
2023-03-21T06:23:04.958Z,100348.38
2023-03-21T06:28:07.798Z,100349.28
2023-03-21T06:33:16.824Z,100345.34
2023-03-21T06:38:20.733Z,100355.31
2023-03-21T06:43:25.218Z,100342.31
2023-03-21T06:48:29.525Z,100339.19
2023-03-21T06:53:35.119Z,100347.31
2023-03-21T06:59:00.158Z,100349.56
2023-03-21T07:04:23.695Z,100349.50
2023-03-21T07:09:28.123Z,100345.44
2023-03-21T07:14:34.561Z,100347.47
2023-03-21T07:19:38.934Z,100346.63
2023-03-21T07:24:41.798Z,100347.97
2023-03-21T07:29:47.080Z,100355.13
2023-03-21T07:34:51.226Z,100349.56
2023-03-21T07:39:54.408Z,100352.06
2023-03-21T07:45:01.483Z,100358.22
2023-03-21T07:50:11.290Z,100347.97
2023-03-21T07:55:14.120Z,100358.13
2023-03-21T08:00:22.902Z,100354.84
2023-03-21T08:05:29.903Z,100360.28
2023-03-21T08:10:32.738Z,100364.88
2023-03-21T08:15:35.928Z,100358.72
2023-03-21T08:20:40.175Z,100359.53
2023-03-21T08:25:42.931Z,100356.13
2023-03-21T08:30:45.744Z,100363.09
2023-03-21T08:35:49.975Z,100365.53
2023-03-21T08:40:52.812Z,100364.03
2023-03-21T08:45:56.053Z,100370.81
2023-03-21T08:51:02.315Z,100365.84
2023-03-21T08:56:06.230Z,100366.81
2023-03-21T09:01:11.277Z,100356.19
2023-03-21T09:06:15.704Z,100361.88
2023-03-21T09:11:18.455Z,100357.28
2023-03-21T09:16:21.272Z,100360.72
2023-03-21T09:21:25.997Z,100368.31
2023-03-21T09:26:28.807Z,100350.47
2023-03-21T09:31:31.636Z,100364.69
2023-03-21T09:36:36.474Z,100368.72
2023-03-21T09:41:56.566Z,100356.38
2023-03-21T09:47:04.421Z,100368.41
2023-03-21T09:52:16.444Z,100360.41
2023-03-21T09:57:31.226Z,100353.69
2023-03-21T10:02:39.320Z,100352.22
2023-03-21T10:07:50.183Z,100354.13
2023-03-21T10:12:56.168Z,100361.19
2023-03-21T10:18:02.384Z,100365.22
2023-03-21T10:23:09.286Z,100347.50
2023-03-21T10:28:17.409Z,100337.72
2023-03-21T10:33:23.796Z,100334.53
2023-03-21T10:38:28.203Z,100337.50
2023-03-21T10:43:38.756Z,100331.06
2023-03-21T10:48:46.284Z,100322.63
2023-03-21T10:53:54.951Z,100321.34
2023-03-21T10:59:00.582Z,100325.44
2023-03-21T11:04:09.392Z,100320.50
2023-03-21T11:09:17.288Z,100316.03
2023-03-21T11:14:32.978Z,100314.69
2023-03-21T11:19:37.357Z,100318.66
2023-03-21T11:24:42.894Z,100318.06
2023-03-21T11:29:48.670Z,100311.94
2023-03-21T11:34:57.874Z,100312.56
2023-03-21T11:40:19.422Z,100308.91
2023-03-21T11:45:24.731Z,100310.59
2023-03-21T11:50:32.572Z,100296.50
2023-03-21T11:55:47.083Z,100293.25
2023-03-21T12:00:57.204Z,100271.41
2023-03-21T12:06:04.096Z,100275.91
2023-03-21T12:11:16.233Z,100260.81
2023-03-21T12:16:46.678Z,100257.75
2023-03-21T12:22:02.249Z,100249.44
2023-03-21T12:27:13.953Z,100248.44
2023-03-21T12:32:36.746Z,100242.66
2023-03-21T12:37:42.154Z,100233.88
2023-03-21T12:43:03.185Z,100231.03
2023-03-21T12:48:18.084Z,100208.03
2023-03-21T12:53:40.483Z,100220.22
2023-03-21T12:58:49.905Z,100211.81
2023-03-21T13:04:01.344Z,100199.22
2023-03-21T13:09:11.505Z,100212.66
2023-03-21T13:14:22.435Z,100210.47
2023-03-21T13:19:32.025Z,100216.31
2023-03-21T13:24:40.625Z,100202.03
2023-03-21T13:29:49.703Z,100190.69
2023-03-21T13:34:56.422Z,100175.97
2023-03-21T13:40:09.210Z,100178.66
2023-03-21T13:45:26.019Z,100173.50
2023-03-21T13:50:37.687Z,100157.50
2023-03-21T13:55:43.031Z,100163.91
2023-03-21T14:01:11.764Z,100151.56
2023-03-21T14:06:16.191Z,100143.53
2023-03-21T14:11:21.175Z,100133.13
2023-03-21T14:16:28.512Z,100133.53
2023-03-21T14:21:33.828Z,100117.13
2023-03-21T14:26:39.001Z,100108.22
2023-03-21T14:31:43.145Z,100103.16
2023-03-21T14:36:55.442Z,100096.41
2023-03-21T14:42:05.775Z,100095.50
2023-03-21T14:47:19.110Z,100093.53
2023-03-21T14:52:25.495Z,100095.69
2023-03-21T14:57:30.923Z,100080.81
2023-03-21T15:02:37.628Z,100057.94
2023-03-21T15:07:40.816Z,100066.38
2023-03-21T15:12:52.341Z,100064.72
2023-03-21T15:18:01.330Z,100049.50
2023-03-21T15:23:09.095Z,100052.16
2023-03-21T15:28:15.304Z,100024.53
2023-03-21T15:33:20.547Z,100034.69
2023-03-21T15:38:29.340Z,100040.41
2023-03-21T15:43:40.744Z,100025.13
2023-03-21T15:48:45.448Z,100019.16
2023-03-21T15:53:48.504Z,100067.16
2023-03-21T15:58:53.742Z,100019.47
2023-03-21T16:04:02.983Z,100020.28
2023-03-21T16:09:14.032Z,100016.53
2023-03-21T16:14:17.567Z,100009.34
2023-03-21T16:19:22.016Z,100016.34
2023-03-21T16:24:24.792Z,100012.50
2023-03-21T16:29:27.624Z,100013.84
2023-03-21T16:34:32.141Z,100019.88
2023-03-21T16:39:34.989Z,100009.78
2023-03-21T16:44:39.126Z,100008.56
2023-03-21T16:49:43.574Z,100010.59
2023-03-21T16:54:46.322Z,99994.03
2023-03-21T16:59:49.051Z,100000.63
2023-03-21T17:04:53.181Z,100005.59
2023-03-21T17:09:56.012Z,100014.31
2023-03-21T17:14:58.820Z,100011.47
2023-03-21T17:20:04.108Z,100020.44
2023-03-21T17:25:07.282Z,100032.53
2023-03-21T17:30:20.986Z,100031.47
2023-03-21T17:35:25.795Z,100027.53
2023-03-21T17:40:31.667Z,100028.84
2023-03-21T17:45:34.501Z,100025.06
2023-03-21T17:50:39.463Z,100023.00
2023-03-21T17:55:42.435Z,100033.06
2023-03-21T18:00:46.832Z,100038.28
2023-03-21T18:05:51.169Z,100050.84
2023-03-21T18:10:53.957Z,100055.75
2023-03-21T18:15:56.848Z,100056.22
2023-03-21T18:21:01.380Z,100048.38
2023-03-21T18:26:04.921Z,100046.53
2023-03-21T18:31:15.751Z,100057.78
2023-03-21T18:36:25.326Z,100053.41
2023-03-21T18:41:29.366Z,100048.75
2023-03-21T18:46:32.976Z,100046.00
2023-03-21T18:51:37.302Z,100056.47
2023-03-21T19:02:03.236Z,100049.28
2023-03-21T19:07:08.465Z,100053.25
2023-03-21T19:12:11.263Z,100051.91
2023-03-21T19:18:07.183Z,100052.75
2023-03-21T19:22:38.914Z,100040.63
2023-03-21T19:27:42.031Z,100042.72
2023-03-21T19:32:44.895Z,100032.72
2023-03-21T19:37:48.971Z,100033.09
2023-03-21T19:42:52.708Z,100030.94
2023-03-21T19:47:55.617Z,100031.69
2023-03-21T19:53:00.416Z,100016.88
2023-03-21T19:58:03.243Z,100026.81
2023-03-21T20:03:08.761Z,100020.72
2023-03-21T20:08:13.026Z,100026.09
2023-03-21T20:13:15.836Z,100032.81
2023-03-21T20:18:18.609Z,100032.69
2023-03-21T20:23:23.390Z,100034.41
2023-03-21T20:28:28.619Z,100032.94
2023-03-21T20:33:32.339Z,100025.66
2023-03-21T20:38:37.085Z,100022.03
2023-03-21T20:49:02.443Z,100022.44
2023-03-21T20:54:06.842Z,100021.59
2023-03-21T20:59:23.194Z,100028.19
2023-03-21T21:04:48.193Z,100018.56
2023-03-21T21:09:55.233Z,100020.16
2023-03-21T21:14:58.022Z,100014.63
2023-03-21T21:20:01.562Z,100018.19
2023-03-21T21:25:06.625Z,100013.78
2023-03-21T21:30:10.775Z,100004.84
2023-03-21T21:35:13.548Z,99999.75
2023-03-21T21:40:20.491Z,99978.13
2023-03-21T21:45:23.349Z,99973.97
2023-03-21T21:50:26.088Z,99973.41
2023-03-21T21:55:30.653Z,99971.56
2023-03-21T22:00:34.305Z,99974.28
2023-03-21T22:05:37.281Z,99982.44
2023-03-21T22:10:42.221Z,99978.41
2023-03-21T22:15:47.232Z,99971.88
2023-03-21T22:20:52.213Z,99970.88
2023-03-21T22:25:58.177Z,99967.31
2023-03-21T22:31:09.284Z,99968.19
2023-03-21T22:36:13.034Z,99967.13
2023-03-21T22:41:17.215Z,99961.25
2023-03-21T22:46:20.119Z,99963.09
2023-03-21T22:51:22.903Z,99966.00
2023-03-21T22:56:27.060Z,99961.50
2023-03-21T23:01:31.409Z,99958.31
2023-03-21T23:06:34.723Z,99956.50
2023-03-21T23:11:39.269Z,99957.78
2023-03-21T23:16:42.421Z,99944.44
2023-03-21T23:21:46.214Z,99943.97
2023-03-21T23:26:50.446Z,99946.31
2023-03-21T23:31:53.257Z,99944.97
2023-03-21T23:36:56.191Z,99926.34
2023-03-21T23:42:00.395Z,99926.41
2023-03-21T23:47:03.292Z,99929.34
2023-03-21T23:52:06.639Z,99923.22
2023-03-21T23:57:10.993Z,99920.75
